sensor_id;sensor_type;location;lat;lon;timestamp;temperature;humidity
810;DHT22;387;48.772;9.186;2023-02-18T00:02:17;12.70;78.00
810;DHT22;387;48.772;9.186;2023-02-18T00:04:42;12.70;78.00
810;DHT22;387;48.772;9.186;2023-02-18T00:07:08;12.70;77.80
810;DHT22;387;48.772;9.186;2023-02-18T00:09:34;12.70;77.80
810;DHT22;387;48.772;9.186;2023-02-18T00:11:59;12.70;77.80
810;DHT22;387;48.772;9.186;2023-02-18T00:14:25;12.70;77.80
810;DHT22;387;48.772;9.186;2023-02-18T00:16:50;12.70;77.70
810;DHT22;387;48.772;9.186;2023-02-18T00:19:18;12.70;77.70
810;DHT22;387;48.772;9.186;2023-02-18T00:21:45;12.70;77.40
810;DHT22;387;48.772;9.186;2023-02-18T00:24:13;12.70;77.60
810;DHT22;387;48.772;9.186;2023-02-18T00:26:40;12.70;77.60
810;DHT22;387;48.772;9.186;2023-02-18T00:29:06;12.70;77.70
810;DHT22;387;48.772;9.186;2023-02-18T00:31:34;12.70;77.60
810;DHT22;387;48.772;9.186;2023-02-18T00:34:02;12.70;77.60
810;DHT22;387;48.772;9.186;2023-02-18T00:36:29;12.70;77.60
810;DHT22;387;48.772;9.186;2023-02-18T00:38:58;12.70;77.40
810;DHT22;387;48.772;9.186;2023-02-18T00:41:26;12.70;77.40
810;DHT22;387;48.772;9.186;2023-02-18T00:43:52;12.70;77.40
810;DHT22;387;48.772;9.186;2023-02-18T00:46:18;12.70;77.30
810;DHT22;387;48.772;9.186;2023-02-18T00:48:44;12.70;77.10
810;DHT22;387;48.772;9.186;2023-02-18T00:51:10;12.70;77.10
810;DHT22;387;48.772;9.186;2023-02-18T00:53:36;12.70;77.30
810;DHT22;387;48.772;9.186;2023-02-18T00:56:02;12.60;77.30
810;DHT22;387;48.772;9.186;2023-02-18T00:58:28;12.60;77.40
810;DHT22;387;48.772;9.186;2023-02-18T01:00:54;12.60;77.30
810;DHT22;387;48.772;9.186;2023-02-18T01:03:20;12.60;77.40
810;DHT22;387;48.772;9.186;2023-02-18T01:05:46;12.60;77.40
810;DHT22;387;48.772;9.186;2023-02-18T01:08:14;12.70;77.30
810;DHT22;387;48.772;9.186;2023-02-18T01:10:43;12.60;77.30
810;DHT22;387;48.772;9.186;2023-02-18T01:13:09;12.60;77.30
810;DHT22;387;48.772;9.186;2023-02-18T01:15:36;12.60;77.40
810;DHT22;387;48.772;9.186;2023-02-18T01:18:02;12.70;77.30
810;DHT22;387;48.772;9.186;2023-02-18T01:20:28;12.70;77.30
810;DHT22;387;48.772;9.186;2023-02-18T01:22:54;12.70;77.30
810;DHT22;387;48.772;9.186;2023-02-18T01:25:19;12.70;77.30
810;DHT22;387;48.772;9.186;2023-02-18T01:27:45;12.70;77.30
810;DHT22;387;48.772;9.186;2023-02-18T01:30:13;12.60;77.30
810;DHT22;387;48.772;9.186;2023-02-18T01:32:40;12.60;77.10
810;DHT22;387;48.772;9.186;2023-02-18T01:35:06;12.60;77.30
810;DHT22;387;48.772;9.186;2023-02-18T01:37:32;12.60;77.30
810;DHT22;387;48.772;9.186;2023-02-18T01:39:58;12.50;77.40
810;DHT22;387;48.772;9.186;2023-02-18T01:42:26;12.60;77.30
810;DHT22;387;48.772;9.186;2023-02-18T01:44:53;12.50;77.30
810;DHT22;387;48.772;9.186;2023-02-18T01:47:19;12.50;77.10
810;DHT22;387;48.772;9.186;2023-02-18T01:49:49;12.50;77.10
810;DHT22;387;48.772;9.186;2023-02-18T01:52:18;12.50;77.10
810;DHT22;387;48.772;9.186;2023-02-18T01:54:49;12.50;77.10
810;DHT22;387;48.772;9.186;2023-02-18T01:57:26;12.50;77.10
810;DHT22;387;48.772;9.186;2023-02-18T01:59:55;12.50;77.00
810;DHT22;387;48.772;9.186;2023-02-18T02:02:24;12.50;77.00
810;DHT22;387;48.772;9.186;2023-02-18T02:04:51;12.50;77.00
810;DHT22;387;48.772;9.186;2023-02-18T02:07:18;12.50;77.00
810;DHT22;387;48.772;9.186;2023-02-18T02:09:45;12.50;76.80
810;DHT22;387;48.772;9.186;2023-02-18T02:12:56;12.50;76.80
810;DHT22;387;48.772;9.186;2023-02-18T02:15:33;12.50;76.70
810;DHT22;387;48.772;9.186;2023-02-18T02:32:08;12.50;76.50
810;DHT22;387;48.772;9.186;2023-02-18T02:53:39;12.40;76.20
810;DHT22;387;48.772;9.186;2023-02-18T02:56:05;12.40;76.20
810;DHT22;387;48.772;9.186;2023-02-18T02:58:31;12.50;76.10
810;DHT22;387;48.772;9.186;2023-02-18T03:04:22;12.50;76.10
810;DHT22;387;48.772;9.186;2023-02-18T03:09:31;12.50;76.10
810;DHT22;387;48.772;9.186;2023-02-18T03:17:14;12.50;76.10
810;DHT22;387;48.772;9.186;2023-02-18T03:19:54;12.50;76.20
810;DHT22;387;48.772;9.186;2023-02-18T03:22:28;12.50;76.20
810;DHT22;387;48.772;9.186;2023-02-18T03:24:56;12.50;76.20
810;DHT22;387;48.772;9.186;2023-02-18T03:27:26;12.40;76.40
810;DHT22;387;48.772;9.186;2023-02-18T03:29:58;12.50;76.50
810;DHT22;387;48.772;9.186;2023-02-18T03:32:26;12.40;76.50
810;DHT22;387;48.772;9.186;2023-02-18T03:35:08;12.40;76.70
810;DHT22;387;48.772;9.186;2023-02-18T03:37:38;12.30;76.70
810;DHT22;387;48.772;9.186;2023-02-18T03:40:05;12.30;77.10
810;DHT22;387;48.772;9.186;2023-02-18T03:42:31;12.20;77.30
810;DHT22;387;48.772;9.186;2023-02-18T03:44:57;12.20;77.60
810;DHT22;387;48.772;9.186;2023-02-18T03:47:24;12.10;77.70
810;DHT22;387;48.772;9.186;2023-02-18T03:49:49;12.10;77.80
810;DHT22;387;48.772;9.186;2023-02-18T03:52:15;12.00;78.00
810;DHT22;387;48.772;9.186;2023-02-18T03:54:40;12.00;78.10
810;DHT22;387;48.772;9.186;2023-02-18T03:57:07;11.90;78.40
810;DHT22;387;48.772;9.186;2023-02-18T03:59:33;11.90;78.60
810;DHT22;387;48.772;9.186;2023-02-18T04:01:58;11.80;78.90
810;DHT22;387;48.772;9.186;2023-02-18T04:04:25;11.80;78.90
810;DHT22;387;48.772;9.186;2023-02-18T04:06:51;11.80;79.00
810;DHT22;387;48.772;9.186;2023-02-18T04:09:17;11.80;79.00
810;DHT22;387;48.772;9.186;2023-02-18T04:11:42;11.80;78.90
810;DHT22;387;48.772;9.186;2023-02-18T04:14:08;11.80;79.00
810;DHT22;387;48.772;9.186;2023-02-18T04:16:34;11.80;79.00
810;DHT22;387;48.772;9.186;2023-02-18T04:19:00;11.90;78.90
810;DHT22;387;48.772;9.186;2023-02-18T04:21:25;12.00;78.40
810;DHT22;387;48.772;9.186;2023-02-18T04:23:51;12.00;78.30
810;DHT22;387;48.772;9.186;2023-02-18T04:26:16;12.00;78.10
810;DHT22;387;48.772;9.186;2023-02-18T04:28:42;12.00;78.10
810;DHT22;387;48.772;9.186;2023-02-18T04:31:07;11.90;78.00
810;DHT22;387;48.772;9.186;2023-02-18T04:33:33;11.90;78.00
810;DHT22;387;48.772;9.186;2023-02-18T04:35:58;11.90;78.10
810;DHT22;387;48.772;9.186;2023-02-18T04:38:24;11.80;78.30
810;DHT22;387;48.772;9.186;2023-02-18T04:40:50;11.80;78.40
810;DHT22;387;48.772;9.186;2023-02-18T04:43:15;11.80;78.60
810;DHT22;387;48.772;9.186;2023-02-18T04:45:41;11.80;78.40
810;DHT22;387;48.772;9.186;2023-02-18T04:48:06;11.70;78.90
810;DHT22;387;48.772;9.186;2023-02-18T04:50:32;11.80;78.90
810;DHT22;387;48.772;9.186;2023-02-18T04:52:58;11.70;78.60
810;DHT22;387;48.772;9.186;2023-02-18T04:55:23;11.70;78.90
810;DHT22;387;48.772;9.186;2023-02-18T04:57:49;11.70;78.70
810;DHT22;387;48.772;9.186;2023-02-18T05:00:16;11.70;79.00
810;DHT22;387;48.772;9.186;2023-02-18T05:02:42;11.70;78.90
810;DHT22;387;48.772;9.186;2023-02-18T05:05:08;11.60;78.90
810;DHT22;387;48.772;9.186;2023-02-18T05:07:34;11.60;78.70
810;DHT22;387;48.772;9.186;2023-02-18T05:09:59;11.60;78.70
810;DHT22;387;48.772;9.186;2023-02-18T05:12:25;11.60;78.70
810;DHT22;387;48.772;9.186;2023-02-18T05:14:51;11.60;78.60
810;DHT22;387;48.772;9.186;2023-02-18T05:17:16;11.60;78.70
810;DHT22;387;48.772;9.186;2023-02-18T05:19:42;11.60;78.70
810;DHT22;387;48.772;9.186;2023-02-18T05:22:07;11.60;78.70
810;DHT22;387;48.772;9.186;2023-02-18T05:24:33;11.60;78.90
810;DHT22;387;48.772;9.186;2023-02-18T05:26:59;11.70;78.70
810;DHT22;387;48.772;9.186;2023-02-18T05:29:24;11.70;78.70
810;DHT22;387;48.772;9.186;2023-02-18T05:31:50;11.70;78.70
810;DHT22;387;48.772;9.186;2023-02-18T05:34:16;11.60;79.00
810;DHT22;387;48.772;9.186;2023-02-18T05:36:42;11.60;79.30
810;DHT22;387;48.772;9.186;2023-02-18T05:39:07;11.50;79.60
810;DHT22;387;48.772;9.186;2023-02-18T05:41:33;11.50;79.70
810;DHT22;387;48.772;9.186;2023-02-18T05:43:58;11.50;79.90
810;DHT22;387;48.772;9.186;2023-02-18T05:46:47;11.50;80.00
810;DHT22;387;48.772;9.186;2023-02-18T05:49:12;11.50;80.20
810;DHT22;387;48.772;9.186;2023-02-18T05:51:38;11.50;80.50
810;DHT22;387;48.772;9.186;2023-02-18T05:54:04;11.50;80.50
810;DHT22;387;48.772;9.186;2023-02-18T05:56:30;11.50;80.60
810;DHT22;387;48.772;9.186;2023-02-18T05:58:55;11.50;80.30
810;DHT22;387;48.772;9.186;2023-02-18T06:01:21;11.50;80.20
810;DHT22;387;48.772;9.186;2023-02-18T06:03:46;11.60;80.20
810;DHT22;387;48.772;9.186;2023-02-18T06:06:12;11.60;80.00
810;DHT22;387;48.772;9.186;2023-02-18T06:08:37;11.60;80.00
810;DHT22;387;48.772;9.186;2023-02-18T06:11:03;11.60;80.00
810;DHT22;387;48.772;9.186;2023-02-18T06:13:29;11.60;80.00
810;DHT22;387;48.772;9.186;2023-02-18T06:15:54;11.60;80.00
810;DHT22;387;48.772;9.186;2023-02-18T06:18:20;11.70;80.00
810;DHT22;387;48.772;9.186;2023-02-18T06:20:47;11.70;79.90
810;DHT22;387;48.772;9.186;2023-02-18T06:23:13;11.70;80.00
810;DHT22;387;48.772;9.186;2023-02-18T06:25:39;11.70;80.00
810;DHT22;387;48.772;9.186;2023-02-18T06:28:05;11.70;80.00
810;DHT22;387;48.772;9.186;2023-02-18T06:30:30;11.70;80.00
810;DHT22;387;48.772;9.186;2023-02-18T06:32:56;11.60;80.00
810;DHT22;387;48.772;9.186;2023-02-18T06:35:22;11.60;80.20
810;DHT22;387;48.772;9.186;2023-02-18T06:37:47;11.60;80.20
810;DHT22;387;48.772;9.186;2023-02-18T06:40:13;11.70;80.20
810;DHT22;387;48.772;9.186;2023-02-18T06:42:39;11.70;79.90
810;DHT22;387;48.772;9.186;2023-02-18T06:45:04;11.80;79.70
810;DHT22;387;48.772;9.186;2023-02-18T06:47:31;11.80;79.60
810;DHT22;387;48.772;9.186;2023-02-18T06:49:57;11.80;79.50
810;DHT22;387;48.772;9.186;2023-02-18T06:52:23;11.90;79.60
810;DHT22;387;48.772;9.186;2023-02-18T06:54:48;11.80;79.30
810;DHT22;387;48.772;9.186;2023-02-18T06:57:14;11.90;79.30
810;DHT22;387;48.772;9.186;2023-02-18T06:59:39;11.90;79.30
810;DHT22;387;48.772;9.186;2023-02-18T07:02:05;11.90;79.20
810;DHT22;387;48.772;9.186;2023-02-18T07:04:31;12.00;79.00
810;DHT22;387;48.772;9.186;2023-02-18T07:06:56;12.00;79.00
810;DHT22;387;48.772;9.186;2023-02-18T07:09:22;12.00;78.70
810;DHT22;387;48.772;9.186;2023-02-18T07:11:47;12.00;78.60
810;DHT22;387;48.772;9.186;2023-02-18T07:14:13;12.00;78.60
810;DHT22;387;48.772;9.186;2023-02-18T07:16:39;12.10;78.60
810;DHT22;387;48.772;9.186;2023-02-18T07:19:04;12.10;78.30
810;DHT22;387;48.772;9.186;2023-02-18T07:21:30;12.20;77.80
810;DHT22;387;48.772;9.186;2023-02-18T07:23:55;12.20;77.70
810;DHT22;387;48.772;9.186;2023-02-18T07:26:21;12.30;77.60
810;DHT22;387;48.772;9.186;2023-02-18T07:28:47;12.30;77.40
810;DHT22;387;48.772;9.186;2023-02-18T07:31:12;12.30;77.40
810;DHT22;387;48.772;9.186;2023-02-18T07:33:38;12.40;77.30
810;DHT22;387;48.772;9.186;2023-02-18T07:36:03;12.40;77.00
810;DHT22;387;48.772;9.186;2023-02-18T07:38:30;12.50;76.80
810;DHT22;387;48.772;9.186;2023-02-18T07:40:56;12.50;76.70
810;DHT22;387;48.772;9.186;2023-02-18T07:43:22;12.50;76.70
810;DHT22;387;48.772;9.186;2023-02-18T07:45:48;12.50;76.80
810;DHT22;387;48.772;9.186;2023-02-18T07:48:15;12.50;76.70
810;DHT22;387;48.772;9.186;2023-02-18T07:50:42;12.50;76.80
810;DHT22;387;48.772;9.186;2023-02-18T07:53:10;12.60;76.70
810;DHT22;387;48.772;9.186;2023-02-18T07:55:36;12.60;76.70
810;DHT22;387;48.772;9.186;2023-02-18T07:58:26;12.70;76.40
810;DHT22;387;48.772;9.186;2023-02-18T08:00:53;12.70;76.10
810;DHT22;387;48.772;9.186;2023-02-18T08:03:20;12.70;75.90
810;DHT22;387;48.772;9.186;2023-02-18T08:05:48;12.80;75.70
810;DHT22;387;48.772;9.186;2023-02-18T08:08:16;12.80;75.70
810;DHT22;387;48.772;9.186;2023-02-18T08:10:42;12.80;75.70
810;DHT22;387;48.772;9.186;2023-02-18T08:13:08;12.90;75.40
810;DHT22;387;48.772;9.186;2023-02-18T08:15:34;12.90;75.40
810;DHT22;387;48.772;9.186;2023-02-18T08:17:59;12.90;75.20
810;DHT22;387;48.772;9.186;2023-02-18T08:20:26;12.90;75.20
810;DHT22;387;48.772;9.186;2023-02-18T08:22:51;12.90;75.10
810;DHT22;387;48.772;9.186;2023-02-18T08:25:17;13.00;74.90
810;DHT22;387;48.772;9.186;2023-02-18T08:27:42;13.00;74.90
810;DHT22;387;48.772;9.186;2023-02-18T08:30:08;13.00;74.80
810;DHT22;387;48.772;9.186;2023-02-18T08:32:34;13.10;74.80
810;DHT22;387;48.772;9.186;2023-02-18T08:35:00;13.10;74.50
810;DHT22;387;48.772;9.186;2023-02-18T08:37:25;13.10;74.30
810;DHT22;387;48.772;9.186;2023-02-18T08:39:51;13.10;74.50
810;DHT22;387;48.772;9.186;2023-02-18T08:42:17;13.20;74.20
810;DHT22;387;48.772;9.186;2023-02-18T08:44:42;13.20;73.90
810;DHT22;387;48.772;9.186;2023-02-18T08:47:08;13.20;73.70
810;DHT22;387;48.772;9.186;2023-02-18T08:49:34;13.20;73.70
810;DHT22;387;48.772;9.186;2023-02-18T08:52:01;13.30;73.60
810;DHT22;387;48.772;9.186;2023-02-18T08:54:27;13.30;73.30
810;DHT22;387;48.772;9.186;2023-02-18T08:56:54;13.40;73.00
810;DHT22;387;48.772;9.186;2023-02-18T08:59:22;13.40;73.00
810;DHT22;387;48.772;9.186;2023-02-18T09:01:48;13.50;72.90
810;DHT22;387;48.772;9.186;2023-02-18T09:04:13;13.50;72.70
810;DHT22;387;48.772;9.186;2023-02-18T09:06:39;13.60;72.60
810;DHT22;387;48.772;9.186;2023-02-18T09:09:05;13.60;72.40
810;DHT22;387;48.772;9.186;2023-02-18T09:11:30;13.60;72.40
810;DHT22;387;48.772;9.186;2023-02-18T09:13:56;13.70;72.30
810;DHT22;387;48.772;9.186;2023-02-18T09:16:22;13.70;72.10
810;DHT22;387;48.772;9.186;2023-02-18T09:18:48;13.70;72.10
810;DHT22;387;48.772;9.186;2023-02-18T09:21:15;13.70;72.10
810;DHT22;387;48.772;9.186;2023-02-18T09:23:41;13.80;71.80
810;DHT22;387;48.772;9.186;2023-02-18T09:26:09;13.70;71.70
810;DHT22;387;48.772;9.186;2023-02-18T09:28:35;13.80;71.70
810;DHT22;387;48.772;9.186;2023-02-18T09:31:11;13.80;71.60
810;DHT22;387;48.772;9.186;2023-02-18T09:33:40;14.00;71.40
810;DHT22;387;48.772;9.186;2023-02-18T09:36:06;14.00;71.10
810;DHT22;387;48.772;9.186;2023-02-18T09:38:33;14.00;71.10
810;DHT22;387;48.772;9.186;2023-02-18T09:41:00;14.00;71.10
810;DHT22;387;48.772;9.186;2023-02-18T09:43:38;13.90;71.10
810;DHT22;387;48.772;9.186;2023-02-18T09:48:51;13.90;71.00
810;DHT22;387;48.772;9.186;2023-02-18T09:51:18;14.00;71.10
810;DHT22;387;48.772;9.186;2023-02-18T09:53:44;14.00;70.80
810;DHT22;387;48.772;9.186;2023-02-18T09:56:19;14.20;70.80
810;DHT22;387;48.772;9.186;2023-02-18T09:58:47;14.20;70.70
810;DHT22;387;48.772;9.186;2023-02-18T10:03:42;14.20;70.50
810;DHT22;387;48.772;9.186;2023-02-18T10:08:48;14.00;70.80
810;DHT22;387;48.772;9.186;2023-02-18T10:14:00;14.10;71.10
810;DHT22;387;48.772;9.186;2023-02-18T10:16:27;14.10;71.00
810;DHT22;387;48.772;9.186;2023-02-18T10:18:56;14.10;70.80
810;DHT22;387;48.772;9.186;2023-02-18T10:21:29;14.00;71.00
810;DHT22;387;48.772;9.186;2023-02-18T10:24:30;14.00;71.00
810;DHT22;387;48.772;9.186;2023-02-18T10:26:57;14.20;70.80
810;DHT22;387;48.772;9.186;2023-02-18T10:29:23;14.10;70.70
810;DHT22;387;48.772;9.186;2023-02-18T10:43:01;14.50;69.80
810;DHT22;387;48.772;9.186;2023-02-18T10:51:23;14.40;69.90
810;DHT22;387;48.772;9.186;2023-02-18T10:53:52;14.40;69.70
810;DHT22;387;48.772;9.186;2023-02-18T10:59:26;14.50;69.50
810;DHT22;387;48.772;9.186;2023-02-18T11:02:02;14.50;69.50
810;DHT22;387;48.772;9.186;2023-02-18T11:04:38;14.50;69.20
810;DHT22;387;48.772;9.186;2023-02-18T11:07:14;14.50;69.20
810;DHT22;387;48.772;9.186;2023-02-18T11:09:52;14.60;69.40
810;DHT22;387;48.772;9.186;2023-02-18T11:12:27;14.50;69.20
810;DHT22;387;48.772;9.186;2023-02-18T11:17:46;14.50;69.40
810;DHT22;387;48.772;9.186;2023-02-18T11:22:48;14.60;69.40
810;DHT22;387;48.772;9.186;2023-02-18T11:25:23;14.60;69.10
810;DHT22;387;48.772;9.186;2023-02-18T11:27:57;14.70;68.80
810;DHT22;387;48.772;9.186;2023-02-18T11:32:59;14.80;68.50
810;DHT22;387;48.772;9.186;2023-02-18T11:35:28;14.90;68.60
810;DHT22;387;48.772;9.186;2023-02-18T11:37:59;15.00;68.00
810;DHT22;387;48.772;9.186;2023-02-18T11:40:32;14.90;68.00
810;DHT22;387;48.772;9.186;2023-02-18T11:43:10;14.90;67.70
810;DHT22;387;48.772;9.186;2023-02-18T11:45:36;15.10;67.20
810;DHT22;387;48.772;9.186;2023-02-18T11:48:22;14.90;67.20
810;DHT22;387;48.772;9.186;2023-02-18T11:50:52;15.00;67.00
810;DHT22;387;48.772;9.186;2023-02-18T11:53:36;15.10;66.70
810;DHT22;387;48.772;9.186;2023-02-18T11:56:15;15.10;66.70
810;DHT22;387;48.772;9.186;2023-02-18T11:58:45;15.20;66.40
810;DHT22;387;48.772;9.186;2023-02-18T12:03:58;15.20;66.30
810;DHT22;387;48.772;9.186;2023-02-18T12:06:42;15.40;65.80
810;DHT22;387;48.772;9.186;2023-02-18T12:09:28;15.30;66.30
810;DHT22;387;48.772;9.186;2023-02-18T12:12:00;15.20;66.60
810;DHT22;387;48.772;9.186;2023-02-18T12:14:27;15.40;66.10
810;DHT22;387;48.772;9.186;2023-02-18T12:17:05;15.30;65.60
810;DHT22;387;48.772;9.186;2023-02-18T12:31:31;15.50;65.40
810;DHT22;387;48.772;9.186;2023-02-18T12:39:15;15.90;63.80
810;DHT22;387;48.772;9.186;2023-02-18T12:44:35;15.80;63.70
810;DHT22;387;48.772;9.186;2023-02-18T12:53:06;15.90;63.10
810;DHT22;387;48.772;9.186;2023-02-18T12:55:45;15.90;63.40
810;DHT22;387;48.772;9.186;2023-02-18T13:16:28;15.60;63.20
810;DHT22;387;48.772;9.186;2023-02-18T13:19:02;15.40;63.70
810;DHT22;387;48.772;9.186;2023-02-18T13:21:31;15.30;63.80
810;DHT22;387;48.772;9.186;2023-02-18T13:24:03;15.30;63.80
810;DHT22;387;48.772;9.186;2023-02-18T13:26:32;15.10;64.20
810;DHT22;387;48.772;9.186;2023-02-18T13:34:38;15.10;64.50
810;DHT22;387;48.772;9.186;2023-02-18T13:39:54;14.90;64.80
810;DHT22;387;48.772;9.186;2023-02-18T13:47:37;15.20;63.80
810;DHT22;387;48.772;9.186;2023-02-18T13:52:48;15.50;63.20
810;DHT22;387;48.772;9.186;2023-02-18T13:55:19;15.70;62.50
810;DHT22;387;48.772;9.186;2023-02-18T13:57:52;15.60;62.00
810;DHT22;387;48.772;9.186;2023-02-18T14:00:22;15.70;62.00
810;DHT22;387;48.772;9.186;2023-02-18T14:02:56;15.90;61.60
810;DHT22;387;48.772;9.186;2023-02-18T14:05:23;16.20;61.00
810;DHT22;387;48.772;9.186;2023-02-18T14:07:51;16.30;59.90
810;DHT22;387;48.772;9.186;2023-02-18T14:10:32;16.10;60.40
810;DHT22;387;48.772;9.186;2023-02-18T14:31:46;15.30;63.90
810;DHT22;387;48.772;9.186;2023-02-18T14:36:28;15.50;63.70
810;DHT22;387;48.772;9.186;2023-02-18T14:39:07;15.70;63.40
810;DHT22;387;48.772;9.186;2023-02-18T14:50:00;15.20;64.50
810;DHT22;387;48.772;9.186;2023-02-18T14:54:53;15.20;64.80
810;DHT22;387;48.772;9.186;2023-02-18T14:57:26;15.20;65.00
810;DHT22;387;48.772;9.186;2023-02-18T14:59:58;15.20;65.00
810;DHT22;387;48.772;9.186;2023-02-18T15:02:26;15.30;65.00
810;DHT22;387;48.772;9.186;2023-02-18T15:05:10;15.30;64.80
810;DHT22;387;48.772;9.186;2023-02-18T15:07:36;15.20;65.10
810;DHT22;387;48.772;9.186;2023-02-18T15:10:02;15.10;65.40
810;DHT22;387;48.772;9.186;2023-02-18T15:12:28;15.10;65.60
810;DHT22;387;48.772;9.186;2023-02-18T15:14:58;15.10;65.60
810;DHT22;387;48.772;9.186;2023-02-18T15:17:27;14.90;66.00
810;DHT22;387;48.772;9.186;2023-02-18T15:19:57;14.90;66.10
810;DHT22;387;48.772;9.186;2023-02-18T15:22:26;14.90;65.80
810;DHT22;387;48.772;9.186;2023-02-18T15:24:55;14.90;66.10
810;DHT22;387;48.772;9.186;2023-02-18T15:27:28;14.90;66.30
810;DHT22;387;48.772;9.186;2023-02-18T15:32:52;14.80;66.90
810;DHT22;387;48.772;9.186;2023-02-18T15:35:20;14.90;66.70
810;DHT22;387;48.772;9.186;2023-02-18T15:37:53;14.90;66.70
810;DHT22;387;48.772;9.186;2023-02-18T15:40:20;14.90;66.90
810;DHT22;387;48.772;9.186;2023-02-18T15:42:49;14.80;66.90
810;DHT22;387;48.772;9.186;2023-02-18T15:45:24;14.60;67.50
810;DHT22;387;48.772;9.186;2023-02-18T15:47:55;14.60;67.60
810;DHT22;387;48.772;9.186;2023-02-18T15:52:51;14.60;67.60
810;DHT22;387;48.772;9.186;2023-02-18T15:55:30;14.60;67.70
810;DHT22;387;48.772;9.186;2023-02-18T15:58:02;14.60;68.00
810;DHT22;387;48.772;9.186;2023-02-18T16:00:38;14.60;68.00
810;DHT22;387;48.772;9.186;2023-02-18T16:03:15;14.60;68.00
810;DHT22;387;48.772;9.186;2023-02-18T16:05:41;14.50;68.20
810;DHT22;387;48.772;9.186;2023-02-18T16:08:25;14.40;68.60
810;DHT22;387;48.772;9.186;2023-02-18T16:10:59;14.40;68.80
810;DHT22;387;48.772;9.186;2023-02-18T16:13:25;14.40;68.60
810;DHT22;387;48.772;9.186;2023-02-18T16:15:51;14.30;68.90
810;DHT22;387;48.772;9.186;2023-02-18T16:18:38;14.20;69.50
810;DHT22;387;48.772;9.186;2023-02-18T16:23:53;14.10;69.80
810;DHT22;387;48.772;9.186;2023-02-18T16:28:56;14.10;69.80
810;DHT22;387;48.772;9.186;2023-02-18T16:31:24;14.10;69.80
810;DHT22;387;48.772;9.186;2023-02-18T16:33:50;14.00;70.10
810;DHT22;387;48.772;9.186;2023-02-18T16:36:16;13.90;70.20
810;DHT22;387;48.772;9.186;2023-02-18T16:38:43;13.90;70.40
810;DHT22;387;48.772;9.186;2023-02-18T16:41:11;13.90;70.20
810;DHT22;387;48.772;9.186;2023-02-18T16:43:37;13.90;70.40
810;DHT22;387;48.772;9.186;2023-02-18T16:46:14;13.80;70.50
810;DHT22;387;48.772;9.186;2023-02-18T16:48:42;13.80;70.70
810;DHT22;387;48.772;9.186;2023-02-18T16:51:38;13.80;70.70
810;DHT22;387;48.772;9.186;2023-02-18T16:54:04;13.80;70.50
810;DHT22;387;48.772;9.186;2023-02-18T16:56:31;13.80;70.50
810;DHT22;387;48.772;9.186;2023-02-18T16:58:58;13.80;70.50
810;DHT22;387;48.772;9.186;2023-02-18T17:03:49;13.80;70.50
810;DHT22;387;48.772;9.186;2023-02-18T17:06:15;13.80;70.70
810;DHT22;387;48.772;9.186;2023-02-18T17:08:41;13.80;70.70
810;DHT22;387;48.772;9.186;2023-02-18T17:11:18;13.80;70.50
810;DHT22;387;48.772;9.186;2023-02-18T17:13:47;13.80;70.70
810;DHT22;387;48.772;9.186;2023-02-18T17:16:13;13.90;70.70
810;DHT22;387;48.772;9.186;2023-02-18T17:18:39;13.90;70.70
810;DHT22;387;48.772;9.186;2023-02-18T17:21:12;13.90;70.70
810;DHT22;387;48.772;9.186;2023-02-18T17:23:38;13.90;70.70
810;DHT22;387;48.772;9.186;2023-02-18T17:26:19;13.80;70.80
810;DHT22;387;48.772;9.186;2023-02-18T17:28:45;13.80;71.00
810;DHT22;387;48.772;9.186;2023-02-18T17:31:26;13.80;71.00
810;DHT22;387;48.772;9.186;2023-02-18T17:34:00;13.80;71.10
810;DHT22;387;48.772;9.186;2023-02-18T17:36:26;13.80;71.10
810;DHT22;387;48.772;9.186;2023-02-18T17:38:52;13.80;71.30
810;DHT22;387;48.772;9.186;2023-02-18T17:41:18;13.90;71.10
810;DHT22;387;48.772;9.186;2023-02-18T17:43:43;14.00;71.10
810;DHT22;387;48.772;9.186;2023-02-18T17:46:11;13.90;71.40
810;DHT22;387;48.772;9.186;2023-02-18T17:48:38;13.80;71.70
810;DHT22;387;48.772;9.186;2023-02-18T17:51:04;13.80;72.00
810;DHT22;387;48.772;9.186;2023-02-18T17:53:34;13.80;72.00
810;DHT22;387;48.772;9.186;2023-02-18T17:56:00;13.80;72.00
810;DHT22;387;48.772;9.186;2023-02-18T17:58:25;13.80;72.30
810;DHT22;387;48.772;9.186;2023-02-18T18:00:56;13.70;72.30
810;DHT22;387;48.772;9.186;2023-02-18T18:03:22;13.60;72.70
810;DHT22;387;48.772;9.186;2023-02-18T18:05:49;13.70;72.70
810;DHT22;387;48.772;9.186;2023-02-18T18:08:17;13.70;72.70
810;DHT22;387;48.772;9.186;2023-02-18T18:10:48;13.70;72.70
810;DHT22;387;48.772;9.186;2023-02-18T18:13:21;13.70;72.70
810;DHT22;387;48.772;9.186;2023-02-18T18:15:47;13.70;72.70
810;DHT22;387;48.772;9.186;2023-02-18T18:18:13;13.70;72.60
810;DHT22;387;48.772;9.186;2023-02-18T18:20:42;13.70;72.70
810;DHT22;387;48.772;9.186;2023-02-18T18:23:11;13.60;72.70
810;DHT22;387;48.772;9.186;2023-02-18T18:25:47;13.60;73.00
810;DHT22;387;48.772;9.186;2023-02-18T18:28:13;13.50;73.00
810;DHT22;387;48.772;9.186;2023-02-18T18:30:41;13.60;73.00
810;DHT22;387;48.772;9.186;2023-02-18T18:33:17;13.60;72.90
810;DHT22;387;48.772;9.186;2023-02-18T18:35:44;13.50;73.00
810;DHT22;387;48.772;9.186;2023-02-18T18:38:11;13.60;73.00
810;DHT22;387;48.772;9.186;2023-02-18T18:40:37;13.50;73.00
810;DHT22;387;48.772;9.186;2023-02-18T18:43:03;13.50;73.20
810;DHT22;387;48.772;9.186;2023-02-18T18:45:32;13.50;73.20
810;DHT22;387;48.772;9.186;2023-02-18T18:47:58;13.50;73.20
810;DHT22;387;48.772;9.186;2023-02-18T18:50:24;13.60;73.00
810;DHT22;387;48.772;9.186;2023-02-18T18:52:51;13.50;73.00
810;DHT22;387;48.772;9.186;2023-02-18T18:57:49;13.40;73.50
810;DHT22;387;48.772;9.186;2023-02-18T19:00:15;13.50;73.50
810;DHT22;387;48.772;9.186;2023-02-18T19:02:41;13.40;73.30
810;DHT22;387;48.772;9.186;2023-02-18T19:05:32;13.40;73.50
810;DHT22;387;48.772;9.186;2023-02-18T19:07:58;13.40;73.50
810;DHT22;387;48.772;9.186;2023-02-18T19:10:36;13.40;73.50
810;DHT22;387;48.772;9.186;2023-02-18T19:13:04;13.40;73.50
810;DHT22;387;48.772;9.186;2023-02-18T19:15:30;13.40;73.50
810;DHT22;387;48.772;9.186;2023-02-18T19:17:56;13.40;73.50
810;DHT22;387;48.772;9.186;2023-02-18T19:20:24;13.30;73.50
810;DHT22;387;48.772;9.186;2023-02-18T19:22:50;13.40;73.50
810;DHT22;387;48.772;9.186;2023-02-18T19:25:16;13.30;73.50
810;DHT22;387;48.772;9.186;2023-02-18T19:27:43;13.30;73.70
810;DHT22;387;48.772;9.186;2023-02-18T19:30:13;13.30;73.70
810;DHT22;387;48.772;9.186;2023-02-18T19:32:39;13.30;73.60
810;DHT22;387;48.772;9.186;2023-02-18T19:35:05;13.30;73.90
810;DHT22;387;48.772;9.186;2023-02-18T19:37:32;13.20;74.00
810;DHT22;387;48.772;9.186;2023-02-18T19:39:58;13.10;74.00
810;DHT22;387;48.772;9.186;2023-02-18T19:42:23;13.20;74.20
810;DHT22;387;48.772;9.186;2023-02-18T19:44:49;13.10;74.30
810;DHT22;387;48.772;9.186;2023-02-18T19:47:15;13.10;74.50
810;DHT22;387;48.772;9.186;2023-02-18T19:49:40;13.00;74.50
810;DHT22;387;48.772;9.186;2023-02-18T19:52:06;12.90;75.10
810;DHT22;387;48.772;9.186;2023-02-18T19:54:32;12.80;75.50
810;DHT22;387;48.772;9.186;2023-02-18T19:56:58;12.90;75.20